createdAt,value
2022-08-17T00:01:17.162Z,22.87
2022-08-17T00:03:59.105Z,22.81
2022-08-17T00:06:32.894Z,22.79
2022-08-17T00:09:06.785Z,22.74
2022-08-17T00:12:40.469Z,22.71
2022-08-17T00:14:40.196Z,22.68
2022-08-17T00:17:20.613Z,22.66
2022-08-17T00:19:54.281Z,22.64
2022-08-17T00:22:33.717Z,22.60
2022-08-17T00:25:17.982Z,22.56
2022-08-17T00:27:51.455Z,22.53
2022-08-17T00:30:25.088Z,22.47
2022-08-17T00:33:14.003Z,22.43
2022-08-17T00:35:50.819Z,22.39
2022-08-17T00:38:28.650Z,22.36
2022-08-17T00:41:05.840Z,22.33
2022-08-17T00:43:42.583Z,22.31
2022-08-17T00:46:20.167Z,22.30
2022-08-17T00:48:55.816Z,22.29
2022-08-17T00:51:34.722Z,22.25
2022-08-17T00:54:15.349Z,22.24
2022-08-17T00:56:53.372Z,22.24
2022-08-17T00:59:31.553Z,22.23
2022-08-17T01:02:08.069Z,22.21
2022-08-17T01:04:44.559Z,22.21
2022-08-17T01:07:19.977Z,22.21
2022-08-17T01:09:53.675Z,22.21
2022-08-17T01:12:27.524Z,22.19
2022-08-17T01:15:01.069Z,22.18
2022-08-17T01:17:36.414Z,22.16
2022-08-17T01:20:11.883Z,22.13
2022-08-17T01:22:47.221Z,22.12
2022-08-17T01:25:22.856Z,22.10
2022-08-17T01:27:56.574Z,22.09
2022-08-17T01:30:57.830Z,22.06
2022-08-17T01:33:23.910Z,22.04
2022-08-17T01:35:57.639Z,22.01
2022-08-17T01:38:35.033Z,21.98
2022-08-17T01:41:12.704Z,21.97
2022-08-17T01:43:50.353Z,21.95
2022-08-17T01:46:27.114Z,21.95
2022-08-17T01:49:01.730Z,21.95
2022-08-17T01:51:35.671Z,21.94
2022-08-17T01:54:17.389Z,21.94
2022-08-17T01:56:53.023Z,21.92
2022-08-17T01:59:26.737Z,21.90
2022-08-17T02:02:01.410Z,21.90
2022-08-17T02:04:36.104Z,21.86
2022-08-17T02:07:09.701Z,21.84
2022-08-17T02:09:45.211Z,21.79
2022-08-17T02:12:39.328Z,21.76
2022-08-17T02:15:15.989Z,21.74
2022-08-17T02:17:54.827Z,21.71
2022-08-17T02:20:42.079Z,21.71
2022-08-17T02:23:17.171Z,21.70
2022-08-17T02:25:52.347Z,21.69
2022-08-17T02:28:26.356Z,21.66
2022-08-17T02:31:06.166Z,21.63
2022-08-17T02:33:42.623Z,21.59
2022-08-17T02:36:17.059Z,21.57
2022-08-17T02:38:51.768Z,21.56
2022-08-17T02:41:29.765Z,21.54
2022-08-17T02:44:07.076Z,21.53
2022-08-17T02:46:40.617Z,21.50
2022-08-17T02:49:14.153Z,21.49
2022-08-17T02:51:47.723Z,21.48
2022-08-17T02:54:39.907Z,21.45
2022-08-17T02:57:16.231Z,21.44
2022-08-17T02:59:49.740Z,21.41
2022-08-17T03:02:23.362Z,21.38
2022-08-17T03:04:56.969Z,21.37
2022-08-17T03:07:31.940Z,21.33
2022-08-17T03:10:06.489Z,21.33
2022-08-17T03:12:43.518Z,21.31
2022-08-17T03:15:20.597Z,21.27
2022-08-17T03:17:54.757Z,21.27
2022-08-17T03:20:30.639Z,21.25
2022-08-17T03:23:05.294Z,21.23
2022-08-17T03:25:43.424Z,21.20
2022-08-17T03:28:19.216Z,21.19
2022-08-17T03:30:53.555Z,21.17
2022-08-17T03:33:27.230Z,21.18
2022-08-17T03:36:00.936Z,21.19
2022-08-17T03:38:39.012Z,21.19
2022-08-17T03:41:14.136Z,21.18
2022-08-17T03:43:49.099Z,21.17
2022-08-17T03:46:39.860Z,21.17
2022-08-17T03:49:30.604Z,21.15
2022-08-17T03:52:21.600Z,21.12
2022-08-17T03:55:12.451Z,21.15
2022-08-17T03:57:46.140Z,21.15
2022-08-17T04:00:21.417Z,21.14
2022-08-17T04:02:56.155Z,21.16
2022-08-17T04:05:30.320Z,21.18
2022-08-17T04:08:08.300Z,21.18
2022-08-17T04:10:45.126Z,21.20
2022-08-17T04:13:24.877Z,21.25
2022-08-17T04:16:00.722Z,21.29
2022-08-17T04:18:34.357Z,21.31
2022-08-17T04:21:10.644Z,21.35
2022-08-17T04:23:44.203Z,21.41
2022-08-17T04:26:52.657Z,21.45
2022-08-17T04:29:13.210Z,21.49
2022-08-17T04:31:48.318Z,21.52
2022-08-17T04:34:22.211Z,21.56
2022-08-17T04:36:56.408Z,21.62
2022-08-17T04:39:30.172Z,21.67
2022-08-17T04:42:17.144Z,21.74
2022-08-17T04:44:50.814Z,21.79
2022-08-17T04:47:29.266Z,21.87
2022-08-17T04:50:04.253Z,21.97
2022-08-17T04:52:47.001Z,22.05
2022-08-17T04:55:20.867Z,22.12
2022-08-17T04:57:54.422Z,22.20
2022-08-17T05:00:28.038Z,22.27
2022-08-17T05:03:03.586Z,22.33
2022-08-17T05:05:39.533Z,22.41
2022-08-17T05:08:13.109Z,22.51
2022-08-17T05:10:47.500Z,22.61
2022-08-17T05:13:23.466Z,22.73
2022-08-17T05:15:59.579Z,22.85
2022-08-17T05:18:34.625Z,22.97
2022-08-17T05:21:08.801Z,23.08
2022-08-17T05:23:43.487Z,23.17
2022-08-17T05:26:26.869Z,23.25
2022-08-17T05:29:03.025Z,23.35
2022-08-17T05:31:36.736Z,23.44
2022-08-17T05:34:11.779Z,23.52
2022-08-17T05:36:45.530Z,23.60
2022-08-17T05:39:19.198Z,23.69
2022-08-17T05:41:52.774Z,23.82
2022-08-17T05:44:26.494Z,23.90
2022-08-17T05:47:01.818Z,24.00
2022-08-17T05:49:37.780Z,24.11
2022-08-17T05:52:21.173Z,24.25
2022-08-17T05:55:06.573Z,24.47
2022-08-17T05:57:53.541Z,24.49
2022-08-17T06:00:33.260Z,24.60
2022-08-17T06:03:40.219Z,24.82
2022-08-17T06:06:38.328Z,24.97
2022-08-17T06:09:36.535Z,25.13
2022-08-17T06:12:28.488Z,25.28
2022-08-17T06:15:15.431Z,25.45
2022-08-17T06:17:50.650Z,25.57
2022-08-17T06:20:26.668Z,25.72
2022-08-17T06:23:06.686Z,25.89
2022-08-17T06:25:46.288Z,26.05
2022-08-17T06:28:28.925Z,26.18
2022-08-17T06:31:08.694Z,26.27
2022-08-17T06:33:47.640Z,26.40
2022-08-17T06:36:31.755Z,26.52
2022-08-17T06:39:30.822Z,26.64
2022-08-17T06:43:02.909Z,26.74
2022-08-17T06:45:16.467Z,26.88
2022-08-17T06:47:56.917Z,27.02
2022-08-17T06:50:37.178Z,26.92
2022-08-17T06:53:21.847Z,26.77
2022-08-17T06:56:01.213Z,26.71
2022-08-17T06:58:36.068Z,26.76
2022-08-17T07:01:18.370Z,26.88
2022-08-17T07:04:11.787Z,27.03
2022-08-17T07:06:52.641Z,27.22
2022-08-17T07:09:30.105Z,27.35
2022-08-17T07:12:16.455Z,27.44
2022-08-17T07:14:53.253Z,27.44
2022-08-17T07:17:46.842Z,27.47
2022-08-17T07:20:23.716Z,27.52
2022-08-17T07:23:04.603Z,27.56
2022-08-17T07:25:38.323Z,27.59
2022-08-17T07:28:13.332Z,27.66
2022-08-17T07:30:50.315Z,27.82
2022-08-17T07:33:27.698Z,27.97
2022-08-17T07:36:01.880Z,28.14
2022-08-17T07:38:36.719Z,28.27
2022-08-17T07:41:12.823Z,28.46
2022-08-17T07:43:52.427Z,28.59
2022-08-17T07:46:45.932Z,28.70
2022-08-17T07:49:26.293Z,28.95
2022-08-17T07:52:48.145Z,29.26
2022-08-17T07:55:01.279Z,29.56
2022-08-17T07:57:37.208Z,29.70
2022-08-17T08:00:31.420Z,29.91
2022-08-17T08:03:20.494Z,30.01
2022-08-17T08:06:00.467Z,30.07
2022-08-17T08:08:38.983Z,30.22
2022-08-17T08:11:15.691Z,30.46
2022-08-17T08:13:50.058Z,30.68
2022-08-17T08:16:29.450Z,30.85
2022-08-17T08:19:04.247Z,31.05
2022-08-17T08:21:50.132Z,30.96
2022-08-17T08:24:45.723Z,30.91
2022-08-17T08:27:43.914Z,30.89
2022-08-17T08:30:21.558Z,31.11
2022-08-17T08:33:09.594Z,31.44
2022-08-17T08:35:50.463Z,31.82
2022-08-17T08:38:36.617Z,31.64
2022-08-17T08:41:24.783Z,32.18
2022-08-17T08:44:11.526Z,32.92
2022-08-17T08:46:57.885Z,33.24
2022-08-17T08:50:30.136Z,33.19
2022-08-17T08:53:23.735Z,34.35
2022-08-17T08:56:04.485Z,35.15
2022-08-17T08:58:50.877Z,35.85
2022-08-17T09:01:34.838Z,36.11
2022-08-17T09:04:25.488Z,36.13
2022-08-17T09:07:10.335Z,35.57
2022-08-17T09:09:59.011Z,35.06
2022-08-17T09:12:43.210Z,33.93
2022-08-17T09:15:21.661Z,32.99
2022-08-17T09:19:01.608Z,33.67
2022-08-17T09:21:00.319Z,34.85
2022-08-17T09:23:41.242Z,34.32
2022-08-17T09:26:23.107Z,33.43
2022-08-17T09:29:02.722Z,32.49
2022-08-17T09:31:48.929Z,31.77
2022-08-17T09:34:33.157Z,31.18
2022-08-17T09:37:20.699Z,32.58
2022-08-17T09:40:09.735Z,32.27
2022-08-17T09:42:49.794Z,32.99
2022-08-17T09:45:35.552Z,33.10
2022-08-17T09:48:15.843Z,32.45
2022-08-17T09:51:05.998Z,31.80
2022-08-17T09:53:40.930Z,31.07
2022-08-17T09:56:39.137Z,30.67
2022-08-17T09:59:38.193Z,31.20
2022-08-17T10:02:44.127Z,31.07
2022-08-17T10:05:23.912Z,30.91
2022-08-17T10:08:03.479Z,31.62
2022-08-17T10:10:52.274Z,31.35
2022-08-17T10:13:39.661Z,31.37
2022-08-17T10:16:23.382Z,31.71
2022-08-17T10:19:10.887Z,31.55
2022-08-17T10:22:32.473Z,31.23
2022-08-17T10:25:22.055Z,31.43
2022-08-17T10:28:01.362Z,33.16
2022-08-17T10:30:47.880Z,34.48
2022-08-17T10:33:25.134Z,35.71
2022-08-17T10:36:10.660Z,36.56
2022-08-17T10:38:48.258Z,37.25
2022-08-17T10:41:28.074Z,37.73
2022-08-17T10:44:39.280Z,38.13
2022-08-17T10:47:09.452Z,37.71
2022-08-17T10:49:48.055Z,36.50
2022-08-17T10:52:51.913Z,35.26
2022-08-17T10:55:25.987Z,34.35
2022-08-17T10:58:21.239Z,33.34
2022-08-17T11:00:59.876Z,32.56
2022-08-17T11:03:35.198Z,31.90
2022-08-17T11:06:19.462Z,31.26
2022-08-17T11:09:27.740Z,30.61
2022-08-17T11:12:25.831Z,30.15
2022-08-17T11:15:25.718Z,29.73
2022-08-17T11:18:14.508Z,29.46
2022-08-17T11:21:09.363Z,29.77
2022-08-17T11:24:14.410Z,30.85
2022-08-17T11:27:03.418Z,31.86
2022-08-17T11:29:52.007Z,32.38
2022-08-17T11:32:37.453Z,32.63
2022-08-17T11:35:35.095Z,32.43
2022-08-17T11:38:25.937Z,32.14
2022-08-17T11:41:20.559Z,31.89
2022-08-17T11:44:26.253Z,31.76
2022-08-17T11:47:28.750Z,31.82
2022-08-17T11:50:49.964Z,31.92
2022-08-17T11:57:02.576Z,32.16
2022-08-17T12:00:00.139Z,32.31
2022-08-17T12:02:47.465Z,32.35
2022-08-17T12:05:42.679Z,32.21
2022-08-17T12:08:21.627Z,32.15
2022-08-17T12:11:01.660Z,32.10
2022-08-17T12:13:48.021Z,31.93
2022-08-17T12:16:23.345Z,31.78
2022-08-17T12:18:59.352Z,31.63
2022-08-17T12:21:46.419Z,31.62
2022-08-17T12:24:31.544Z,31.63
2022-08-17T12:27:10.131Z,31.48
2022-08-17T12:29:48.308Z,31.22
2022-08-17T12:32:23.921Z,30.95
2022-08-17T12:34:57.699Z,30.65
2022-08-17T12:37:34.522Z,30.46
2022-08-17T12:40:18.445Z,30.33
2022-08-17T12:42:57.792Z,30.22
2022-08-17T12:45:34.259Z,30.17
2022-08-17T12:48:11.614Z,30.20
2022-08-17T12:50:47.368Z,30.27
2022-08-17T12:53:25.045Z,30.33
2022-08-17T12:56:00.431Z,30.40
2022-08-17T12:58:37.821Z,30.52
2022-08-17T13:01:17.972Z,30.61
2022-08-17T13:03:54.782Z,30.65
2022-08-17T13:06:32.223Z,30.72
2022-08-17T13:09:14.820Z,30.81
2022-08-17T13:11:51.263Z,30.87
2022-08-17T13:14:25.021Z,30.92
2022-08-17T13:17:02.471Z,30.95
2022-08-17T13:19:40.688Z,30.92
2022-08-17T13:22:17.093Z,30.88
2022-08-17T13:24:55.738Z,30.91
2022-08-17T13:27:30.570Z,30.87
2022-08-17T13:30:08.608Z,30.76
2022-08-17T13:32:47.404Z,30.67
2022-08-17T13:35:46.485Z,30.62
2022-08-17T13:38:40.760Z,30.51
2022-08-17T13:41:33.730Z,30.48
2022-08-17T13:44:31.520Z,30.52
2022-08-17T13:47:07.590Z,30.51
2022-08-17T13:49:48.942Z,30.59
2022-08-17T13:52:39.533Z,30.65
2022-08-17T13:55:20.270Z,30.68
2022-08-17T13:58:00.900Z,30.75
2022-08-17T14:00:40.946Z,30.82
2022-08-17T14:03:15.446Z,30.87
2022-08-17T14:05:51.602Z,30.88
2022-08-17T14:08:26.607Z,30.85
2022-08-17T14:11:00.422Z,30.80
2022-08-17T14:13:34.261Z,30.82
2022-08-17T14:16:08.333Z,30.84
2022-08-17T14:18:56.132Z,30.85
2022-08-17T14:21:32.726Z,30.83
2022-08-17T14:24:07.260Z,30.80
2022-08-17T14:26:40.827Z,30.82
2022-08-17T14:29:15.362Z,30.85
2022-08-17T14:31:53.352Z,30.82
2022-08-17T14:34:28.389Z,30.74
2022-08-17T14:37:03.497Z,30.64
2022-08-17T14:39:37.319Z,30.56
2022-08-17T14:42:11.727Z,30.46
2022-08-17T14:44:45.526Z,30.36
2022-08-17T14:47:19.409Z,30.29
2022-08-17T14:49:53.281Z,30.18
2022-08-17T14:52:29.629Z,30.08
2022-08-17T14:55:03.495Z,29.97
2022-08-17T14:57:37.192Z,29.82
2022-08-17T15:00:11.815Z,29.70
2022-08-17T15:02:48.416Z,29.65
2022-08-17T15:05:24.766Z,29.70
2022-08-17T15:08:01.036Z,29.77
2022-08-17T15:10:35.691Z,29.81
2022-08-17T15:13:18.367Z,29.89
2022-08-17T15:15:52.165Z,29.95
2022-08-17T15:18:25.886Z,30.00
2022-08-17T15:20:59.693Z,30.00
2022-08-17T15:23:34.906Z,29.98
2022-08-17T15:26:09.233Z,29.97
2022-08-17T15:28:42.880Z,29.95
2022-08-17T15:31:18.353Z,29.94
2022-08-17T15:34:07.955Z,29.91
2022-08-17T15:36:49.193Z,29.87
2022-08-17T15:39:24.603Z,29.84
2022-08-17T15:41:58.898Z,29.83
2022-08-17T15:44:35.069Z,29.80
2022-08-17T15:47:09.680Z,29.79
2022-08-17T15:49:45.556Z,29.78
2022-08-17T15:52:21.361Z,29.75
2022-08-17T15:54:58.903Z,29.74
2022-08-17T15:57:34.017Z,29.73
2022-08-17T16:00:09.747Z,29.71
2022-08-17T16:03:44.960Z,29.70
2022-08-17T16:05:40.768Z,29.70
2022-08-17T16:08:20.029Z,29.69
2022-08-17T16:10:55.841Z,29.66
2022-08-17T16:13:31.127Z,29.68
2022-08-17T16:16:05.101Z,29.70
2022-08-17T16:18:39.506Z,29.74
2022-08-17T16:21:31.178Z,29.78
2022-08-17T16:24:16.802Z,29.84
2022-08-17T16:26:51.950Z,29.86
2022-08-17T16:29:25.893Z,29.86
2022-08-17T16:31:59.839Z,29.87
2022-08-17T16:34:34.160Z,29.85
2022-08-17T16:37:08.524Z,29.82
2022-08-17T16:39:42.317Z,29.80
2022-08-17T16:42:31.366Z,29.82
2022-08-17T16:45:08.734Z,29.77
2022-08-17T16:47:43.178Z,29.73
2022-08-17T16:50:18.925Z,29.67
2022-08-17T16:52:52.852Z,29.60
2022-08-17T16:55:26.858Z,29.53
2022-08-17T16:58:02.601Z,29.47
2022-08-17T17:00:36.707Z,29.41
2022-08-17T17:03:19.432Z,29.35
2022-08-17T17:06:03.551Z,29.29
2022-08-17T17:08:44.677Z,29.22
2022-08-17T17:11:25.849Z,29.17
2022-08-17T17:14:03.515Z,29.09
2022-08-17T17:16:45.812Z,29.01
2022-08-17T17:19:34.469Z,28.92
2022-08-17T17:22:15.795Z,28.85
2022-08-17T17:25:04.052Z,28.73
2022-08-17T17:27:47.295Z,28.62
2022-08-17T17:30:27.241Z,28.53
2022-08-17T17:33:06.204Z,28.43
2022-08-17T17:35:48.865Z,28.34
2022-08-17T17:38:28.993Z,28.26
2022-08-17T17:41:06.926Z,28.17
2022-08-17T17:43:41.550Z,28.09
2022-08-17T17:46:27.352Z,28.02
2022-08-17T17:49:02.570Z,27.94
2022-08-17T17:52:07.922Z,27.88
2022-08-17T17:55:05.093Z,27.82
2022-08-17T17:57:51.416Z,27.71
2022-08-17T18:00:27.512Z,27.62
2022-08-17T18:03:15.367Z,27.56
2022-08-17T18:06:06.112Z,27.47
2022-08-17T18:08:58.206Z,27.44
2022-08-17T18:11:59.223Z,27.38
2022-08-17T18:14:48.063Z,27.31
2022-08-17T18:17:24.026Z,27.24
2022-08-17T18:19:59.221Z,27.18
2022-08-17T18:22:32.952Z,27.13
2022-08-17T18:25:39.863Z,27.13
2022-08-17T18:28:25.221Z,27.05
2022-08-17T18:31:08.201Z,26.99
2022-08-17T18:33:44.301Z,26.92
2022-08-17T18:36:30.479Z,26.86
2022-08-17T18:39:13.350Z,26.79
2022-08-17T18:41:49.045Z,26.72
2022-08-17T18:44:29.153Z,26.66
2022-08-17T18:47:14.581Z,26.60
2022-08-17T18:49:50.184Z,26.46
2022-08-17T18:52:29.794Z,26.18
2022-08-17T18:55:09.844Z,25.92
2022-08-17T18:57:46.150Z,25.72
2022-08-17T19:00:38.330Z,25.56
2022-08-17T19:03:24.876Z,25.51
2022-08-17T19:06:19.044Z,25.55
2022-08-17T19:08:54.173Z,25.59
2022-08-17T19:11:30.270Z,25.61
2022-08-17T19:14:07.969Z,25.63
2022-08-17T19:16:49.319Z,25.68
2022-08-17T19:19:26.807Z,25.71
2022-08-17T19:22:10.356Z,25.72
2022-08-17T19:24:55.765Z,25.73
2022-08-17T19:27:43.691Z,25.67
2022-08-17T19:30:20.515Z,25.64
2022-08-17T19:32:54.459Z,25.61
2022-08-17T19:35:45.497Z,25.67
2022-08-17T19:38:31.621Z,25.73
2022-08-17T19:41:13.312Z,25.76
2022-08-17T19:43:58.862Z,25.79
2022-08-17T19:46:43.057Z,25.79
2022-08-17T19:49:40.991Z,25.80
2022-08-17T19:52:31.978Z,25.78
2022-08-17T19:55:20.272Z,25.76
2022-08-17T19:58:05.523Z,25.74
2022-08-17T20:00:48.050Z,25.71
2022-08-17T20:03:27.203Z,25.67
2022-08-17T20:06:19.088Z,25.63
2022-08-17T20:09:01.117Z,25.62
2022-08-17T20:11:41.580Z,25.59
2022-08-17T20:14:21.131Z,25.59
2022-08-17T20:16:58.210Z,25.59
2022-08-17T20:19:53.496Z,25.61
2022-08-17T20:22:49.650Z,25.65
2022-08-17T20:25:35.268Z,25.67
2022-08-17T20:28:24.892Z,25.73
2022-08-17T20:31:02.254Z,25.74
2022-08-17T20:33:39.834Z,25.74
2022-08-17T20:36:23.704Z,25.74
2022-08-17T20:39:01.812Z,25.72
2022-08-17T20:42:06.473Z,25.78
2022-08-17T20:44:42.099Z,25.73
2022-08-17T20:47:27.220Z,25.73
2022-08-17T20:50:04.627Z,25.71
2022-08-17T20:52:51.758Z,25.74
2022-08-17T20:55:55.776Z,25.74
2022-08-17T20:58:53.922Z,25.73
2022-08-17T21:01:39.186Z,25.69
2022-08-17T21:07:30.360Z,25.58
2022-08-17T21:10:18.746Z,25.50
2022-08-17T21:13:04.811Z,25.43
2022-08-17T21:15:44.964Z,25.35
2022-08-17T21:18:29.690Z,25.27
2022-08-17T21:21:21.349Z,25.21
2022-08-17T21:24:11.657Z,25.13
2022-08-17T21:26:55.964Z,25.01
2022-08-17T21:29:34.111Z,24.94
2022-08-17T21:32:24.155Z,24.88
2022-08-17T21:35:28.792Z,24.88
2022-08-17T21:38:05.318Z,24.80
2022-08-17T21:40:46.157Z,24.74
2022-08-17T21:43:26.191Z,24.69
2022-08-17T21:46:09.749Z,24.64
2022-08-17T21:48:48.253Z,24.60
2022-08-17T21:51:25.682Z,24.53
2022-08-17T21:54:01.501Z,24.48
2022-08-17T21:56:40.170Z,24.43
2022-08-17T21:59:27.630Z,24.43
2022-08-17T22:02:02.637Z,24.39
2022-08-17T22:04:41.420Z,24.34
2022-08-17T22:07:15.432Z,24.32
2022-08-17T22:09:51.389Z,24.29
2022-08-17T22:12:26.384Z,24.25
2022-08-17T22:15:02.310Z,24.23
2022-08-17T22:17:41.275Z,24.21
2022-08-17T22:20:20.505Z,24.19
2022-08-17T22:23:31.351Z,24.18
2022-08-17T22:26:09.712Z,24.11
2022-08-17T22:28:51.211Z,24.10
2022-08-17T22:31:28.327Z,24.08
2022-08-17T22:34:16.974Z,24.08
2022-08-17T22:37:10.802Z,24.06
2022-08-17T22:39:45.461Z,24.03
2022-08-17T22:42:19.353Z,24.02
2022-08-17T22:44:54.747Z,24.01
2022-08-17T22:47:39.030Z,24.00
2022-08-17T22:50:22.244Z,23.99
2022-08-17T22:53:19.438Z,23.98
2022-08-17T22:56:12.650Z,23.96
2022-08-17T22:59:10.107Z,23.94
2022-08-17T23:01:47.228Z,23.90
2022-08-17T23:04:35.964Z,23.89
2022-08-17T23:07:09.855Z,23.85
2022-08-17T23:09:43.893Z,23.82
2022-08-17T23:12:23.283Z,23.79
2022-08-17T23:15:02.245Z,23.75
2022-08-17T23:17:37.711Z,23.71
2022-08-17T23:20:14.260Z,23.67
2022-08-17T23:22:51.390Z,23.62
2022-08-17T23:25:28.877Z,23.60
2022-08-17T23:28:04.303Z,23.55
2022-08-17T23:30:41.805Z,23.51
2022-08-17T23:33:21.501Z,23.49
2022-08-17T23:36:00.588Z,23.44
2022-08-17T23:38:34.291Z,23.41
2022-08-17T23:41:13.080Z,23.37
2022-08-17T23:43:49.655Z,23.35
2022-08-17T23:46:25.271Z,23.33
2022-08-17T23:49:00.752Z,23.34
2022-08-17T23:51:42.758Z,23.33
2022-08-17T23:54:22.752Z,23.32
2022-08-17T23:56:56.526Z,23.31
2022-08-17T23:59:32.853Z,23.28
